Portada
METAR-TAF:

METAR-TAF

Aeroports :

Capital City Airport

Frankfort, Kentucky, Estats Units d'Amèrica

latitud: 38-11-05N, longitud: 084-54-12W, altitud: 245 m

Observació

L'informe es va fer fa 45 minuts, a les 10:53 UTC
Vent 8 kt del Sud
Temperatura 22°C
Humitat 73%
Pressió 1013 hPa
Visibilitat: 16.1 km
Cel clar

METAR: KFFT 221053Z AUTO 19008KT 10SM CLR 22/17 A2990 RMK AO2 SLP116 T02170167

Hora: 07:38 (11:38 UTC)


TAF: manca

Observacions i pronòstics meteorològics de més de 4000 aeroports (METAR i TAF).

Les estacions disponibles són els punts grocs i vermells al mapa.

Posi el ratolí al punt desitjat per veure el nom de l'estació.

Feu clic per veure les observacions i els pronòstics meteorològics.

Per canviar el mapa: feu clic els botons verds amb una creu de color negre per apropar; al botó verd amb un guió per allunyar la imatge; o en les fletxes verdes per a mapes adjacents.


METAR-TAF: